Time;durP1;ratioP1;P1;durP2;ratioP2;P2;SDS_P1;SDS_P2;PMS_P1;PMS_P2;Temp;Humidity;BMP_temperature;BMP_pressure;BME280_temperature;BME280_humidity;BME280_pressure;Samples;Min_cycle;Max_cycle;Signal;HPM_P1;HPM_P2
2022/01/22 00:01:21;;;;;;;2.45;1.40;;;;;;;;;;20832801;28;20056;-61
2022/01/22 00:11:28;;;;;;;4.47;1.63;;;;;;;;;;20833419;28;20057;-63
2022/01/22 00:21:33;;;;;;;4.88;1.60;;;;;;;;;;20835927;28;20045;-61
2022/01/22 00:31:39;;;;;;;3.22;1.40;;;;;;;;;;20847533;28;20045;-61
2022/01/22 00:41:41;;;;;;;3.00;1.30;;;;;;;;;;20853978;28;20110;-61
2022/01/22 00:51:53;;;;;;;4.03;1.73;;;;;;;;;;20848765;28;20103;-61
2022/01/22 01:01:58;;;;;;;4.80;1.83;;;;;;;;;;20854529;28;20103;-63
2022/01/22 01:12:04;;;;;;;4.20;1.77;;;;;;;;;;20845982;28;20398;-61
2022/01/22 01:32:41;;;;;;;2.50;1.23;;;;;;;;;;20849042;28;20057;-62
2022/01/22 01:42:50;;;;;;;3.92;1.67;;;;;;;;;;20845287;28;20049;-63
2022/01/22 01:53:20;;;;;;;2.38;1.52;;;;;;;;;;20841645;28;20054;-62
2022/01/22 02:03:24;;;;;;;2.40;1.27;;;;;;;;;;20856311;28;20049;-60
2022/01/22 02:23:44;;;;;;;4.10;1.73;;;;;;;;;;20865443;28;20046;-63
2022/01/22 02:34:05;;;;;;;3.28;1.20;;;;;;;;;;20838867;28;20053;-67
2022/01/22 02:44:14;;;;;;;3.13;1.65;;;;;;;;;;20928892;28;20048;-63
2022/01/22 02:54:18;;;;;;;4.07;1.60;;;;;;;;;;20912821;28;20532;-62
2022/01/22 03:04:23;;;;;;;3.10;1.60;;;;;;;;;;20911591;28;20045;-61
2022/01/22 03:15:01;;;;;;;4.72;2.08;;;;;;;;;;20852260;28;20053;-61
2022/01/22 03:35:24;;;;;;;6.75;2.00;;;;;;;;;;20845566;28;20085;-61
2022/01/22 03:45:27;;;;;;;4.13;2.15;;;;;;;;;;20847154;28;20049;-60
2022/01/22 03:55:57;;;;;;;5.28;2.08;;;;;;;;;;20842725;28;20409;-61
2022/01/22 04:06:43;;;;;;;5.28;2.17;;;;;;;;;;20850876;28;20041;-62
2022/01/22 04:16:34;;;;;;;3.80;1.85;;;;;;;;;;20911570;28;20053;-62
2022/01/22 04:26:52;;;;;;;3.53;1.85;;;;;;;;;;20925245;28;20064;-61
2022/01/22 04:36:58;;;;;;;4.95;1.98;;;;;;;;;;20923325;28;20060;-61
2022/01/22 04:47:17;;;;;;;9.15;2.67;;;;;;;;;;20860576;28;20050;-61
2022/01/22 04:57:19;;;;;;;2.97;1.95;;;;;;;;;;20847405;28;20053;-61
2022/01/22 05:07:24;;;;;;;8.90;3.00;;;;;;;;;;20853615;28;20087;-64
2022/01/22 05:17:26;;;;;;;4.88;1.98;;;;;;;;;;20846215;28;20053;-61
2022/01/22 05:27:49;;;;;;;4.32;1.90;;;;;;;;;;20847980;28;20504;-61
2022/01/22 05:37:53;;;;;;;3.95;2.22;;;;;;;;;;20849588;28;20142;-62
2022/01/22 05:47:55;;;;;;;4.63;2.03;;;;;;;;;;20845346;28;20042;-61
2022/01/22 06:08:22;;;;;;;4.80;2.47;;;;;;;;;;20842890;28;20049;-61
2022/01/22 06:18:23;;;;;;;4.80;2.58;;;;;;;;;;20849769;28;20467;-62
2022/01/22 06:28:25;;;;;;;6.75;2.70;;;;;;;;;;20841832;28;20478;-62
2022/01/22 06:38:27;;;;;;;4.65;2.35;;;;;;;;;;20841067;28;20503;-62
2022/01/22 06:48:30;;;;;;;6.63;2.47;;;;;;;;;;20840676;28;20049;-61
2022/01/22 06:58:36;;;;;;;6.18;2.92;;;;;;;;;;20852711;28;20076;-63
2022/01/22 07:08:59;;;;;;;5.15;2.55;;;;;;;;;;20841559;28;20158;-61
2022/01/22 07:19:21;;;;;;;9.40;3.08;;;;;;;;;;20836855;28;20076;-61
2022/01/22 07:29:44;;;;;;;6.88;3.10;;;;;;;;;;20837175;28;20045;-62
2022/01/22 07:39:58;;;;;;;5.72;4.28;;;;;;;;;;20848462;28;20493;-62
2022/01/22 07:50:19;;;;;;;12.15;6.28;;;;;;;;;;20849983;28;20064;-62
2022/01/22 08:00:21;;;;;;;7.00;3.67;;;;;;;;;;20851065;28;20431;-62
2022/01/22 08:10:23;;;;;;;7.47;3.70;;;;;;;;;;20840501;28;20049;-61
2022/01/22 08:20:26;;;;;;;7.50;4.93;;;;;;;;;;20843994;28;20049;-64
2022/01/22 08:30:35;;;;;;;10.95;4.18;;;;;;;;;;20840511;28;20060;-62
2022/01/22 08:40:51;;;;;;;7.88;3.88;;;;;;;;;;20871943;28;20460;-62
2022/01/22 08:50:54;;;;;;;7.38;2.83;;;;;;;;;;20878105;28;20061;-68
2022/01/22 09:00:56;;;;;;;8.68;3.90;;;;;;;;;;20849729;28;20053;-62
2022/01/22 09:10:58;;;;;;;6.93;3.53;;;;;;;;;;20847391;28;20497;-62
2022/01/22 09:21:04;;;;;;;11.55;4.10;;;;;;;;;;20847498;28;20141;-62
2022/01/22 09:31:06;;;;;;;7.45;4.03;;;;;;;;;;20849754;28;20049;-63
2022/01/22 09:41:10;;;;;;;10.63;5.20;;;;;;;;;;20845732;28;20049;-62
2022/01/22 09:51:12;;;;;;;9.18;5.18;;;;;;;;;;20846344;28;20452;-64
2022/01/22 10:01:25;;;;;;;12.32;6.63;;;;;;;;;;20864454;28;20050;-62
2022/01/22 10:11:33;;;;;;;13.07;5.70;;;;;;;;;;20848788;28;20062;-62
2022/01/22 10:21:41;;;;;;;9.45;6.18;;;;;;;;;;20849771;28;20045;-63
2022/01/22 10:31:43;;;;;;;12.68;7.25;;;;;;;;;;20862733;28;20049;-63
2022/01/22 10:41:45;;;;;;;10.05;6.50;;;;;;;;;;20852618;28;20079;-63
2022/01/22 10:51:56;;;;;;;12.50;6.65;;;;;;;;;;20833178;28;20486;-62
2022/01/22 11:02:00;;;;;;;8.35;5.93;;;;;;;;;;20832545;28;20045;-62
2022/01/22 11:12:04;;;;;;;11.32;6.28;;;;;;;;;;20836699;28;20053;-61
2022/01/22 11:22:13;;;;;;;9.77;5.28;;;;;;;;;;20832543;28;20054;-62
2022/01/22 11:32:17;;;;;;;7.68;5.60;;;;;;;;;;20830012;28;20077;-63
2022/01/22 11:42:21;;;;;;;7.10;5.43;;;;;;;;;;20829391;28;20478;-62
2022/01/22 11:52:25;;;;;;;10.10;6.53;;;;;;;;;;20829418;28;20080;-63
2022/01/22 12:02:27;;;;;;;8.20;6.60;;;;;;;;;;20830463;28;20513;-62
2022/01/22 12:22:51;;;;;;;12.40;7.07;;;;;;;;;;20834415;28;20045;-63
2022/01/22 12:32:53;;;;;;;11.40;7.60;;;;;;;;;;20844146;28;20056;-63
2022/01/22 12:43:04;;;;;;;8.77;6.10;;;;;;;;;;20843803;28;20480;-63
2022/01/22 12:53:11;;;;;;;9.07;6.57;;;;;;;;;;20842210;28;20103;-63
2022/01/22 13:03:13;;;;;;;9.77;6.90;;;;;;;;;;20841343;28;20061;-64
2022/01/22 13:13:19;;;;;;;7.30;5.85;;;;;;;;;;20840807;28;20060;-65
2022/01/22 13:23:22;;;;;;;9.18;6.90;;;;;;;;;;20851836;28;20405;-63
2022/01/22 13:53:57;;;;;;;11.47;6.37;;;;;;;;;;20837910;28;20045;-63
2022/01/22 14:04:06;;;;;;;9.48;5.40;;;;;;;;;;20837300;28;20049;-63
2022/01/22 14:14:08;;;;;;;9.23;5.75;;;;;;;;;;20835875;28;20112;-64
2022/01/22 14:24:11;;;;;;;9.55;6.05;;;;;;;;;;20835805;28;20046;-65
2022/01/22 14:34:29;;;;;;;8.90;6.05;;;;;;;;;;20835055;28;20053;-65
2022/01/22 14:44:33;;;;;;;8.45;6.22;;;;;;;;;;20833201;28;20041;-63
2022/01/22 14:54:36;;;;;;;8.52;6.20;;;;;;;;;;20833819;28;20057;-64
2022/01/22 15:04:39;;;;;;;7.80;5.95;;;;;;;;;;20833342;28;20042;-63
2022/01/22 15:14:41;;;;;;;7.03;5.95;;;;;;;;;;20832167;28;20060;-63
2022/01/22 15:24:44;;;;;;;8.23;5.13;;;;;;;;;;20831361;28;20049;-63
2022/01/22 15:34:57;;;;;;;6.93;5.30;;;;;;;;;;20829010;28;20136;-62
2022/01/22 15:44:59;;;;;;;7.85;5.93;;;;;;;;;;20829250;28;20486;-61
2022/01/22 15:55:01;;;;;;;7.10;5.43;;;;;;;;;;20830971;28;20059;-64
2022/01/22 16:05:04;;;;;;;7.85;6.03;;;;;;;;;;20844704;28;20068;-62
2022/01/22 16:15:06;;;;;;;7.60;5.30;;;;;;;;;;20843407;28;20053;-62
2022/01/22 16:25:08;;;;;;;6.85;5.25;;;;;;;;;;20843194;28;20046;-64
2022/01/22 16:35:09;;;;;;;7.68;5.65;;;;;;;;;;20841940;28;20056;-64
2022/01/22 16:45:45;;;;;;;12.25;8.68;;;;;;;;;;20843391;28;20045;-64
2022/01/22 17:05:40;;;;;;;8.90;6.10;;;;;;;;;;20839131;28;20049;-63
2022/01/22 17:15:42;;;;;;;12.43;6.13;;;;;;;;;;20838642;28;20585;-63
2022/01/22 17:25:44;;;;;;;10.82;7.38;;;;;;;;;;20837918;28;20119;-62
2022/01/22 17:35:48;;;;;;;9.98;6.38;;;;;;;;;;20837734;28;20053;-63
2022/01/22 17:45:50;;;;;;;9.85;6.47;;;;;;;;;;20837855;28;20489;-61
2022/01/22 17:55:52;;;;;;;8.30;6.15;;;;;;;;;;20835900;28;20046;-63
2022/01/22 18:05:56;;;;;;;15.07;11.50;;;;;;;;;;20836192;28;20056;-63
2022/01/22 18:15:58;;;;;;;12.65;8.30;;;;;;;;;;20834331;28;20053;-63
2022/01/22 18:25:59;;;;;;;16.10;9.68;;;;;;;;;;20832551;28;20049;-62
2022/01/22 18:36:01;;;;;;;13.00;9.05;;;;;;;;;;20832499;28;20053;-63
2022/01/22 18:46:10;;;;;;;16.58;9.27;;;;;;;;;;20831614;28;20405;-61
2022/01/22 18:56:12;;;;;;;21.77;14.40;;;;;;;;;;20831095;28;20140;-62
2022/01/22 19:06:14;;;;;;;12.60;8.98;;;;;;;;;;20831063;28;20489;-63
2022/01/22 19:16:16;;;;;;;18.60;12.30;;;;;;;;;;20829742;28;20533;-61
2022/01/22 19:36:33;;;;;;;18.20;12.35;;;;;;;;;;20828824;28;20056;-64
2022/01/22 19:46:35;;;;;;;15.90;9.27;;;;;;;;;;20829703;28;20060;-63
2022/01/22 19:56:37;;;;;;;12.85;8.73;;;;;;;;;;20829455;28;20049;-64
2022/01/22 20:06:39;;;;;;;15.75;8.73;;;;;;;;;;20829156;28;20041;-63
2022/01/22 20:16:41;;;;;;;14.27;8.02;;;;;;;;;;20826924;28;20053;-63
2022/01/22 20:26:44;;;;;;;14.93;8.25;;;;;;;;;;20828199;28;20503;-62
2022/01/22 20:36:45;;;;;;;12.20;7.05;;;;;;;;;;20825400;28;20050;-63
2022/01/22 20:46:57;;;;;;;11.70;7.35;;;;;;;;;;20836602;28;20049;-62
2022/01/22 20:57:00;;;;;;;12.93;8.13;;;;;;;;;;20844005;28;20052;-62
2022/01/22 21:07:03;;;;;;;11.18;6.70;;;;;;;;;;20844362;28;20071;-66
2022/01/22 21:17:05;;;;;;;13.70;8.90;;;;;;;;;;20841487;28;20057;-63
2022/01/22 21:27:07;;;;;;;13.70;8.73;;;;;;;;;;20840556;28;20477;-65
2022/01/22 21:47:13;;;;;;;11.15;7.90;;;;;;;;;;20849608;28;20096;-64
2022/01/22 21:57:15;;;;;;;18.75;13.02;;;;;;;;;;20842545;28;20053;-63
2022/01/22 22:07:17;;;;;;;16.45;9.50;;;;;;;;;;20845999;28;20045;-61
2022/01/22 22:17:24;;;;;;;13.60;10.27;;;;;;;;;;20839188;28;20168;-63
2022/01/22 22:27:26;;;;;;;20.98;10.10;;;;;;;;;;20837021;28;20473;-62
2022/01/22 22:37:28;;;;;;;13.38;8.27;;;;;;;;;;20837444;28;20046;-64
2022/01/22 22:47:31;;;;;;;13.75;8.90;;;;;;;;;;20838227;28;20045;-64
2022/01/22 22:57:33;;;;;;;17.20;9.73;;;;;;;;;;20840656;28;20045;-64
2022/01/22 23:07:35;;;;;;;15.75;9.32;;;;;;;;;;20841222;28;20064;-63
2022/01/22 23:21:10;;;;;;;12.60;8.65;;;;;;;;;;20836321;28;20236;-62
2022/01/22 23:28:11;;;;;;;14.30;10.05;;;;;;;;;;20837287;28;20099;-61
2022/01/22 23:59:13;;;;;;;15.43;10.10;;;;;;;;;;20836588;28;20140;-60
